createdAt,value
2019-01-14T00:00:30.562Z,70.96
2019-01-14T00:01:01.836Z,70.98
2019-01-14T00:01:33.074Z,71.02
2019-01-14T00:02:04.335Z,71.06
2019-01-14T00:02:35.509Z,71.07
2019-01-14T00:03:06.763Z,71.06
2019-01-14T00:03:37.985Z,71.22
2019-01-14T00:04:09.216Z,71.33
2019-01-14T00:04:40.413Z,71.42
2019-01-14T00:05:11.534Z,71.50
2019-01-14T00:05:42.741Z,71.44
2019-01-14T00:06:14.019Z,71.41
2019-01-14T00:06:45.172Z,71.33
2019-01-14T00:07:16.386Z,71.35
2019-01-14T00:07:47.624Z,71.34
2019-01-14T00:08:18.834Z,71.23
2019-01-14T00:08:50.027Z,71.28
2019-01-14T00:09:23.432Z,71.34
2019-01-14T00:09:54.242Z,71.48
2019-01-14T00:10:25.443Z,71.52
2019-01-14T00:10:56.640Z,71.62
2019-01-14T00:11:27.826Z,71.70
2019-01-14T00:11:59.058Z,71.72
2019-01-14T00:12:30.291Z,71.74
2019-01-14T00:13:01.420Z,71.74
2019-01-14T00:13:32.637Z,71.72
2019-01-14T00:14:03.927Z,71.72
2019-01-14T00:14:35.166Z,71.76
2019-01-14T00:15:06.402Z,71.85
2019-01-14T00:15:37.639Z,71.93
2019-01-14T00:16:09.648Z,72.00
2019-01-14T00:16:40.897Z,72.08
2019-01-14T00:17:12.129Z,72.20
2019-01-14T00:17:43.360Z,72.31
2019-01-14T00:18:14.563Z,72.31
2019-01-14T00:18:45.841Z,72.35
2019-01-14T00:19:17.073Z,72.39
2019-01-14T00:19:48.258Z,72.44
2019-01-14T00:20:19.503Z,72.47
2019-01-14T00:20:50.728Z,72.49
2019-01-14T00:21:21.955Z,72.33
2019-01-14T00:21:53.170Z,72.33
2019-01-14T00:22:24.388Z,72.55
2019-01-14T00:22:55.622Z,72.61
2019-01-14T00:23:26.834Z,72.72
2019-01-14T00:23:58.065Z,72.79
2019-01-14T00:24:29.258Z,72.67
2019-01-14T00:25:00.452Z,72.67
2019-01-14T00:25:31.643Z,72.69
2019-01-14T00:26:02.918Z,72.49
2019-01-14T00:26:34.089Z,72.33
2019-01-14T00:27:05.322Z,72.26
2019-01-14T00:27:36.569Z,72.42
2019-01-14T00:28:07.780Z,72.60
2019-01-14T00:28:39.007Z,72.45
2019-01-14T00:29:10.261Z,72.99
2019-01-14T00:29:41.553Z,73.38
2019-01-14T00:30:12.768Z,73.40
2019-01-14T00:30:43.976Z,73.71
2019-01-14T00:31:15.173Z,73.71
2019-01-14T00:31:46.381Z,73.85
2019-01-14T00:32:17.608Z,73.85
2019-01-14T00:32:48.804Z,73.98
2019-01-14T00:33:20.009Z,74.11
2019-01-14T00:33:51.217Z,74.24
2019-01-14T00:34:22.442Z,74.24
2019-01-14T00:34:53.697Z,74.16
2019-01-14T00:35:24.883Z,74.17
2019-01-14T00:35:56.162Z,74.17
2019-01-14T00:36:27.398Z,73.91
2019-01-14T00:36:58.631Z,73.91
2019-01-14T00:37:29.872Z,73.96
2019-01-14T00:38:01.116Z,74.03
2019-01-14T00:38:32.329Z,74.18
2019-01-14T00:39:03.530Z,74.18
2019-01-14T00:39:34.733Z,74.21
2019-01-14T00:40:05.975Z,74.22
2019-01-14T00:40:37.200Z,73.87
2019-01-14T00:41:08.464Z,73.77
2019-01-14T00:41:39.694Z,73.77
2019-01-14T00:42:10.951Z,73.86
2019-01-14T00:42:42.156Z,73.88
2019-01-14T00:43:13.336Z,73.98
2019-01-14T00:43:44.627Z,73.87
2019-01-14T00:44:15.856Z,73.80
2019-01-14T00:44:47.067Z,73.72
2019-01-14T00:45:18.315Z,73.66
2019-01-14T00:45:49.541Z,73.63
2019-01-14T00:46:20.767Z,73.58
2019-01-14T00:46:51.960Z,73.54
2019-01-14T00:47:23.203Z,73.60
2019-01-14T00:47:54.375Z,73.70
2019-01-14T00:48:25.618Z,73.71
2019-01-14T00:48:56.819Z,73.71
2019-01-14T00:49:28.095Z,73.67
2019-01-14T00:49:59.383Z,73.64
2019-01-14T00:50:30.576Z,73.67
2019-01-14T00:51:01.775Z,73.71
2019-01-14T00:51:33.009Z,73.73
2019-01-14T00:52:04.232Z,73.71
2019-01-14T00:52:35.476Z,73.70
2019-01-14T00:53:06.724Z,73.73
2019-01-14T00:53:37.942Z,73.73
2019-01-14T00:54:10.651Z,73.74
2019-01-14T00:54:41.976Z,73.73
2019-01-14T00:55:13.200Z,73.71
2019-01-14T00:55:44.438Z,73.74
2019-01-14T00:56:15.713Z,73.68
2019-01-14T00:56:46.860Z,73.65
2019-01-14T00:57:18.095Z,73.65
2019-01-14T00:57:49.304Z,74.05
2019-01-14T00:58:20.543Z,74.05
2019-01-14T00:58:51.802Z,74.17
2019-01-14T00:59:22.992Z,74.21
2019-01-14T00:59:54.206Z,74.17
2019-01-14T01:00:25.481Z,74.16
2019-01-14T01:00:56.734Z,74.16
2019-01-14T01:01:27.977Z,74.18
2019-01-14T01:01:59.195Z,74.20
2019-01-14T01:02:30.426Z,74.18
2019-01-14T01:03:01.672Z,74.23
2019-01-14T01:03:32.897Z,74.20
2019-01-14T01:04:04.112Z,74.26
2019-01-14T01:04:35.393Z,74.22
2019-01-14T01:05:06.777Z,74.39
2019-01-14T01:05:37.995Z,74.39
2019-01-14T01:06:09.225Z,74.14
2019-01-14T01:06:40.483Z,74.10
2019-01-14T01:07:11.714Z,74.14
2019-01-14T01:07:43.017Z,74.24
2019-01-14T01:08:16.208Z,74.50
2019-01-14T01:08:47.395Z,74.50
2019-01-14T01:09:18.626Z,74.20
2019-01-14T01:09:49.922Z,74.20
2019-01-14T01:10:21.149Z,74.28
2019-01-14T01:10:52.405Z,74.29
2019-01-14T01:11:23.648Z,74.25
2019-01-14T01:11:54.854Z,74.32
2019-01-14T01:12:26.127Z,74.52
2019-01-14T01:12:57.399Z,74.61
2019-01-14T01:13:28.596Z,74.61
2019-01-14T01:13:59.820Z,74.55
2019-01-14T01:14:31.257Z,74.55
2019-01-14T01:15:02.505Z,74.54
2019-01-14T01:15:33.726Z,74.89
2019-01-14T01:16:04.928Z,74.68
2019-01-14T01:16:36.176Z,74.66
2019-01-14T01:17:07.390Z,74.55
2019-01-14T01:17:38.577Z,74.35
2019-01-14T01:18:09.860Z,74.35
2019-01-14T01:18:41.131Z,74.35
2019-01-14T01:19:12.390Z,74.31
2019-01-14T01:19:43.671Z,74.30
2019-01-14T01:20:14.878Z,74.87
2019-01-14T01:20:46.129Z,74.90
2019-01-14T01:21:17.407Z,74.55
2019-01-14T01:21:48.627Z,74.55
2019-01-14T01:22:19.914Z,74.72
2019-01-14T01:22:51.126Z,74.69
2019-01-14T01:23:22.343Z,74.79
2019-01-14T01:23:53.609Z,75.18
2019-01-14T01:24:24.828Z,75.18
2019-01-14T01:24:56.078Z,75.40
2019-01-14T01:25:27.282Z,75.58
2019-01-14T01:25:58.560Z,75.50
2019-01-14T01:26:29.760Z,75.16
2019-01-14T01:27:00.980Z,74.79
2019-01-14T01:27:32.206Z,74.59
2019-01-14T01:28:03.419Z,74.47
2019-01-14T01:28:34.724Z,74.25
2019-01-14T01:29:05.950Z,74.14
2019-01-14T01:29:37.166Z,74.14
2019-01-14T01:30:08.446Z,74.06
2019-01-14T01:30:39.769Z,74.06
2019-01-14T01:31:11.052Z,74.10
2019-01-14T01:31:42.346Z,74.18
2019-01-14T01:32:13.690Z,74.27
2019-01-14T01:32:44.970Z,74.46
2019-01-14T01:33:16.255Z,74.57
2019-01-14T01:33:47.632Z,74.57
2019-01-14T01:34:18.877Z,74.57
2019-01-14T01:34:50.121Z,74.66
2019-01-14T01:35:21.381Z,74.86
2019-01-14T01:35:52.622Z,74.82
2019-01-14T01:36:23.868Z,74.71
2019-01-14T01:36:55.114Z,74.54
2019-01-14T01:37:26.420Z,74.47
2019-01-14T01:37:57.686Z,74.87
2019-01-14T01:38:28.979Z,74.87
2019-01-14T01:39:00.275Z,74.79
2019-01-14T01:39:31.559Z,74.89
2019-01-14T01:40:02.822Z,75.01
2019-01-14T01:40:34.142Z,75.03
2019-01-14T01:41:05.385Z,75.02
2019-01-14T01:41:36.660Z,75.01
2019-01-14T01:42:07.987Z,74.81
2019-01-14T01:42:39.289Z,74.69
2019-01-14T01:43:10.597Z,74.67
2019-01-14T01:43:41.849Z,74.85
2019-01-14T01:44:13.214Z,75.08
2019-01-14T01:44:44.481Z,75.23
2019-01-14T01:45:15.741Z,75.31
2019-01-14T01:45:47.019Z,75.59
2019-01-14T01:46:18.373Z,75.85
2019-01-14T01:46:49.620Z,76.10
2019-01-14T01:47:21.557Z,76.21
2019-01-14T01:47:52.844Z,76.20
2019-01-14T01:48:24.157Z,76.15
2019-01-14T01:48:56.414Z,76.03
2019-01-14T01:49:27.809Z,75.97
2019-01-14T01:49:59.149Z,75.93
2019-01-14T01:50:30.469Z,75.90
2019-01-14T01:51:01.850Z,75.86
2019-01-14T01:51:33.148Z,75.88
2019-01-14T01:52:04.577Z,75.89
2019-01-14T01:52:36.785Z,75.94
2019-01-14T01:53:08.101Z,75.88
2019-01-14T01:53:39.478Z,75.89
2019-01-14T01:54:10.807Z,75.90
2019-01-14T01:54:42.672Z,75.88
2019-01-14T01:55:14.060Z,75.89
2019-01-14T01:55:45.373Z,75.92
2019-01-14T01:56:16.710Z,75.92
2019-01-14T01:56:48.018Z,75.83
2019-01-14T01:57:19.291Z,75.80
2019-01-14T01:57:50.499Z,75.82
2019-01-14T01:58:21.721Z,75.84
2019-01-14T01:58:53.148Z,75.80
2019-01-14T01:59:24.468Z,75.77
2019-01-14T01:59:55.816Z,75.70
2019-01-14T02:00:27.052Z,75.63
2019-01-14T02:00:58.360Z,75.58
2019-01-14T02:01:29.721Z,75.55
2019-01-14T02:02:03.310Z,75.46
2019-01-14T02:02:34.505Z,75.48
2019-01-14T02:03:17.086Z,75.46
2019-01-14T02:03:48.458Z,75.49
2019-01-14T02:04:19.745Z,75.46
2019-01-14T02:04:50.991Z,75.41
2019-01-14T02:05:22.419Z,75.40
2019-01-14T02:05:53.684Z,75.42
2019-01-14T02:06:25.014Z,75.47
2019-01-14T02:06:56.284Z,75.52
2019-01-14T02:07:27.681Z,75.52
2019-01-14T02:07:59.005Z,75.50
2019-01-14T02:08:30.321Z,75.51
2019-01-14T02:09:01.687Z,75.57
2019-01-14T02:09:33.994Z,75.67
2019-01-14T02:10:06.576Z,75.74
2019-01-14T02:10:37.966Z,75.75
2019-01-14T02:11:09.266Z,75.82
2019-01-14T02:11:40.558Z,75.87
2019-01-14T02:12:12.804Z,75.84
2019-01-14T02:12:44.124Z,75.78
2019-01-14T02:13:15.435Z,75.77
2019-01-14T02:13:46.760Z,75.67
2019-01-14T02:14:18.044Z,75.60
2019-01-14T02:14:49.283Z,75.56
2019-01-14T02:15:20.647Z,75.45
2019-01-14T02:15:52.052Z,75.46
2019-01-14T02:16:26.768Z,75.41
2019-01-14T02:16:58.154Z,75.38
2019-01-14T02:17:30.072Z,75.34
2019-01-14T02:18:01.402Z,75.32
2019-01-14T02:18:33.205Z,75.37
2019-01-14T02:19:04.536Z,75.46
2019-01-14T02:19:35.861Z,75.50
2019-01-14T02:20:11.656Z,75.37
2019-01-14T02:20:43.860Z,75.05
2019-01-14T02:21:15.171Z,75.05
2019-01-14T02:21:46.536Z,75.09
2019-01-14T02:22:18.280Z,75.03
2019-01-14T02:22:49.971Z,75.04
2019-01-14T02:23:21.452Z,75.24
2019-01-14T02:23:55.889Z,75.86
2019-01-14T02:24:27.266Z,75.72
2019-01-14T02:24:58.596Z,75.20
2019-01-14T02:25:31.069Z,74.88
2019-01-14T02:26:04.978Z,74.57
2019-01-14T02:26:36.301Z,74.81
2019-01-14T02:27:07.658Z,75.10
2019-01-14T02:27:39.632Z,75.03
2019-01-14T02:28:10.908Z,74.69
2019-01-14T02:28:43.750Z,74.35
2019-01-14T02:29:15.851Z,74.14
2019-01-14T02:29:47.142Z,74.19
2019-01-14T02:30:19.731Z,74.15
2019-01-14T02:30:51.089Z,74.14
2019-01-14T02:31:22.918Z,74.02
2019-01-14T02:31:55.219Z,73.94
2019-01-14T02:32:26.790Z,73.92
2019-01-14T02:32:58.160Z,73.87
2019-01-14T02:33:29.494Z,73.85
2019-01-14T02:34:00.830Z,73.83
2019-01-14T02:34:32.165Z,73.79
2019-01-14T02:35:03.633Z,73.82
2019-01-14T02:35:35.030Z,73.85
2019-01-14T02:36:06.340Z,73.91
2019-01-14T02:36:38.695Z,73.99
2019-01-14T02:37:10.115Z,74.06
2019-01-14T02:37:42.631Z,74.15
2019-01-14T02:38:14.028Z,74.21
2019-01-14T02:38:45.397Z,74.38
2019-01-14T02:39:16.701Z,74.40
2019-01-14T02:39:48.122Z,74.52
2019-01-14T02:40:19.847Z,74.67
2019-01-14T02:40:51.191Z,74.75
2019-01-14T02:41:22.527Z,74.78
2019-01-14T02:41:53.856Z,74.85
2019-01-14T02:42:25.128Z,74.83
2019-01-14T02:42:56.474Z,74.86
2019-01-14T02:43:27.928Z,74.93
2019-01-14T02:43:59.670Z,74.98
2019-01-14T02:44:30.995Z,75.02
2019-01-14T02:45:02.221Z,74.97
2019-01-14T02:45:34.031Z,74.96
2019-01-14T02:46:05.454Z,74.96
2019-01-14T02:46:36.706Z,74.98
2019-01-14T02:47:08.259Z,74.97
2019-01-14T02:47:39.499Z,74.98
2019-01-14T02:48:10.862Z,75.06
2019-01-14T02:48:42.743Z,75.17
2019-01-14T02:49:14.067Z,75.21
2019-01-14T02:49:45.447Z,75.26
2019-01-14T02:50:17.659Z,75.32
2019-01-14T02:50:50.417Z,75.33
2019-01-14T02:51:22.172Z,75.31
2019-01-14T02:51:53.485Z,75.30
2019-01-14T02:52:24.824Z,75.32
2019-01-14T02:52:56.287Z,75.36
2019-01-14T02:53:27.600Z,75.37
2019-01-14T02:53:58.880Z,75.43
2019-01-14T02:54:30.136Z,75.47
2019-01-14T02:55:01.430Z,75.41
2019-01-14T02:55:32.772Z,75.38
2019-01-14T02:56:04.017Z,75.35
2019-01-14T02:56:35.292Z,75.46
2019-01-14T02:57:06.560Z,75.59
2019-01-14T02:57:37.861Z,75.65
2019-01-14T02:58:09.169Z,75.63
2019-01-14T02:58:40.454Z,75.54
2019-01-14T02:59:11.758Z,75.45
2019-01-14T02:59:43.066Z,75.43
2019-01-14T03:00:14.367Z,75.40
2019-01-14T03:00:45.625Z,75.36
2019-01-14T03:01:16.931Z,75.38
2019-01-14T03:01:48.191Z,75.45
2019-01-14T03:02:19.458Z,75.52
2019-01-14T03:02:50.670Z,75.54
2019-01-14T03:03:21.994Z,75.51
2019-01-14T03:03:53.275Z,75.45
2019-01-14T03:04:24.480Z,75.36
2019-01-14T03:04:55.745Z,75.28
2019-01-14T03:05:26.960Z,75.25
2019-01-14T03:05:58.310Z,75.21
2019-01-14T03:06:29.595Z,75.22
2019-01-14T03:07:00.874Z,75.22
2019-01-14T03:07:32.213Z,75.19
2019-01-14T03:08:03.568Z,75.14
2019-01-14T03:08:34.804Z,75.08
2019-01-14T03:09:06.124Z,75.03
2019-01-14T03:09:37.393Z,74.97
2019-01-14T03:10:08.646Z,74.95
2019-01-14T03:10:39.895Z,74.87
2019-01-14T03:11:11.165Z,74.79
2019-01-14T03:11:42.470Z,74.77
2019-01-14T03:12:13.817Z,74.79
2019-01-14T03:12:45.380Z,74.73
2019-01-14T03:13:16.776Z,74.78
2019-01-14T03:13:48.134Z,74.86
2019-01-14T03:14:19.474Z,74.95
2019-01-14T03:14:50.793Z,74.99
2019-01-14T03:15:22.103Z,75.04
2019-01-14T03:15:54.637Z,75.07
2019-01-14T03:16:41.597Z,75.15
2019-01-14T03:17:13.465Z,75.33
2019-01-14T03:17:45.469Z,75.34
2019-01-14T03:18:18.685Z,75.37
2019-01-14T03:18:50.529Z,75.59
2019-01-14T03:19:22.588Z,75.78
2019-01-14T03:19:55.163Z,75.91
2019-01-14T03:20:26.476Z,76.05
2019-01-14T03:21:01.903Z,76.07
2019-01-14T03:21:40.920Z,76.14
2019-01-14T03:22:12.371Z,76.17
2019-01-14T03:22:44.774Z,76.18
2019-01-14T03:23:19.881Z,76.30
2019-01-14T03:23:51.183Z,76.43
2019-01-14T03:24:25.322Z,76.44
2019-01-14T03:25:13.407Z,76.58
2019-01-14T03:25:45.976Z,76.89
2019-01-14T03:26:19.822Z,77.29
2019-01-14T03:26:51.080Z,77.41
2019-01-14T03:27:22.383Z,77.57
2019-01-14T03:27:53.684Z,77.70
2019-01-14T03:28:25.024Z,77.81
2019-01-14T03:28:56.318Z,77.83
2019-01-14T03:29:27.598Z,77.84
2019-01-14T03:29:58.935Z,77.83
2019-01-14T03:30:30.171Z,77.91
2019-01-14T03:31:01.933Z,78.01
2019-01-14T03:31:33.303Z,78.05
2019-01-14T03:32:04.669Z,78.22
2019-01-14T03:32:36.029Z,78.17
2019-01-14T03:33:07.371Z,78.06
2019-01-14T03:33:38.757Z,77.97
2019-01-14T03:34:10.273Z,77.93
2019-01-14T03:34:41.600Z,77.88
2019-01-14T03:35:12.936Z,77.86
2019-01-14T03:35:46.706Z,77.97
2019-01-14T03:36:19.137Z,78.35
2019-01-14T03:36:51.058Z,78.45
2019-01-14T03:37:22.411Z,78.02
2019-01-14T03:37:55.612Z,77.76
2019-01-14T03:38:28.155Z,77.52
2019-01-14T03:38:59.545Z,77.69
2019-01-14T03:39:30.869Z,77.57
2019-01-14T03:40:02.789Z,77.49
2019-01-14T03:40:34.706Z,77.55
2019-01-14T03:41:07.241Z,77.55
2019-01-14T03:41:38.671Z,77.58
2019-01-14T03:42:11.470Z,77.60
2019-01-14T03:42:42.864Z,77.67
2019-01-14T03:43:15.011Z,77.79
2019-01-14T03:43:46.659Z,77.95
2019-01-14T03:44:17.960Z,78.00
2019-01-14T03:44:49.714Z,77.98
2019-01-14T03:45:21.013Z,78.10
2019-01-14T03:45:52.363Z,78.19
2019-01-14T03:46:23.644Z,78.18
2019-01-14T03:46:55.062Z,78.42
2019-01-14T03:47:26.445Z,78.92
2019-01-14T03:47:57.724Z,79.24
2019-01-14T03:48:29.070Z,79.37
2019-01-14T03:49:00.474Z,79.20
2019-01-14T03:49:31.838Z,78.92
2019-01-14T03:50:05.074Z,78.85
2019-01-14T03:50:36.341Z,78.77
2019-01-14T03:51:07.625Z,78.74
2019-01-14T03:51:38.937Z,78.67
2019-01-14T03:52:10.445Z,78.60
2019-01-14T03:52:41.836Z,78.60
2019-01-14T03:53:24.773Z,78.61
2019-01-14T03:53:56.138Z,78.82
2019-01-14T03:54:27.814Z,78.83
2019-01-14T03:55:00.139Z,78.83
2019-01-14T03:55:31.418Z,79.29
2019-01-14T03:56:02.745Z,79.69
2019-01-14T03:56:34.961Z,79.78
2019-01-14T03:57:07.034Z,79.82
2019-01-14T03:57:38.558Z,79.83
2019-01-14T03:58:12.298Z,79.75
2019-01-14T03:58:43.638Z,79.55
2019-01-14T03:59:15.004Z,79.43
2019-01-14T03:59:46.348Z,79.32
2019-01-14T04:00:17.753Z,79.20
2019-01-14T04:00:49.007Z,79.18
2019-01-14T04:01:20.289Z,79.06
2019-01-14T04:01:51.654Z,79.00
2019-01-14T04:02:22.981Z,78.80
2019-01-14T04:02:54.313Z,78.57
2019-01-14T04:03:25.648Z,78.40
2019-01-14T04:03:57.820Z,78.25
2019-01-14T04:04:31.202Z,78.04
2019-01-14T04:05:02.568Z,77.97
2019-01-14T04:05:34.361Z,77.95
2019-01-14T04:06:05.987Z,77.95
2019-01-14T04:06:38.186Z,77.98
2019-01-14T04:07:13.773Z,78.06
2019-01-14T04:07:42.663Z,77.97
2019-01-14T04:08:14.287Z,77.87
2019-01-14T04:08:45.998Z,77.80
2019-01-14T04:09:17.462Z,77.77
2019-01-14T04:09:49.592Z,77.83
2019-01-14T04:10:22.230Z,78.00
2019-01-14T04:10:53.537Z,78.15
2019-01-14T04:11:34.428Z,78.19
2019-01-14T04:12:07.803Z,78.04
2019-01-14T04:12:41.220Z,77.82
2019-01-14T04:13:13.099Z,77.73
2019-01-14T04:13:44.754Z,77.72
2019-01-14T04:14:16.095Z,77.79
2019-01-14T04:14:57.695Z,77.78
2019-01-14T04:15:29.081Z,77.73
2019-01-14T04:16:04.130Z,77.84
2019-01-14T04:16:35.514Z,77.95
2019-01-14T04:17:15.008Z,77.99
2019-01-14T04:17:59.014Z,78.02
2019-01-14T04:18:32.610Z,78.00
2019-01-14T04:19:05.702Z,78.04
2019-01-14T04:19:47.600Z,78.01
2019-01-14T04:21:13.251Z,77.82
2019-01-14T04:21:44.355Z,78.51
2019-01-14T04:22:15.607Z,79.15
2019-01-14T04:22:46.819Z,79.43
2019-01-14T04:23:18.011Z,79.89
2019-01-14T04:23:49.204Z,80.23
2019-01-14T04:24:20.416Z,79.86
2019-01-14T04:24:51.632Z,79.54
2019-01-14T04:25:22.859Z,79.14
2019-01-14T04:25:54.051Z,78.95
2019-01-14T04:26:25.255Z,78.83
2019-01-14T04:26:56.440Z,78.69
2019-01-14T04:27:27.706Z,78.58
2019-01-14T04:27:58.950Z,78.58
2019-01-14T04:28:30.173Z,78.50
2019-01-14T04:29:01.402Z,78.38
2019-01-14T04:29:32.593Z,78.32
2019-01-14T04:30:03.848Z,78.33
2019-01-14T04:30:35.051Z,78.28
2019-01-14T04:31:06.242Z,78.21
2019-01-14T04:31:37.453Z,78.06
2019-01-14T04:32:08.653Z,77.92
2019-01-14T04:32:39.845Z,77.87
2019-01-14T04:33:11.013Z,77.85
2019-01-14T04:33:42.269Z,77.85
2019-01-14T04:34:13.458Z,77.95
2019-01-14T04:34:44.644Z,78.00
2019-01-14T04:35:16.039Z,78.10
2019-01-14T04:35:47.231Z,78.21
2019-01-14T04:36:18.435Z,78.33
2019-01-14T04:36:49.697Z,78.44
2019-01-14T04:37:21.692Z,78.50
2019-01-14T04:37:53.167Z,78.55
2019-01-14T04:38:24.371Z,78.55
2019-01-14T04:38:55.636Z,78.53
2019-01-14T04:39:26.864Z,78.55
2019-01-14T04:39:58.067Z,78.52
2019-01-14T04:40:29.323Z,78.62
2019-01-14T04:41:00.541Z,78.97
2019-01-14T04:41:31.767Z,79.46
2019-01-14T04:42:03.074Z,79.83
2019-01-14T04:42:34.300Z,79.98
2019-01-14T04:43:05.517Z,79.97
2019-01-14T04:43:36.748Z,80.03
2019-01-14T04:44:07.986Z,80.28
2019-01-14T04:44:39.208Z,80.54
2019-01-14T04:45:10.478Z,80.60
2019-01-14T04:45:41.665Z,80.58
2019-01-14T04:46:12.967Z,80.43
2019-01-14T04:46:44.164Z,80.35
2019-01-14T04:47:15.438Z,80.32
2019-01-14T04:47:46.630Z,80.28
2019-01-14T04:48:17.823Z,80.08
2019-01-14T04:48:49.050Z,79.94
2019-01-14T04:49:20.303Z,79.85
2019-01-14T04:49:51.549Z,79.75
2019-01-14T04:50:22.776Z,79.66
2019-01-14T04:50:53.995Z,79.58
2019-01-14T04:51:25.240Z,79.55
2019-01-14T04:51:56.442Z,79.56
2019-01-14T04:52:27.611Z,79.61
2019-01-14T04:52:58.867Z,79.52
2019-01-14T04:53:30.080Z,79.49
2019-01-14T04:54:01.276Z,79.50
2019-01-14T04:54:32.479Z,79.52
2019-01-14T04:55:03.724Z,79.69
2019-01-14T04:55:35.026Z,79.79
2019-01-14T04:56:06.238Z,79.85
2019-01-14T04:56:37.432Z,79.97
2019-01-14T04:57:08.666Z,80.12
2019-01-14T04:57:39.852Z,80.12
2019-01-14T04:58:11.113Z,80.09
2019-01-14T04:58:42.324Z,79.93
2019-01-14T04:59:13.527Z,79.78
2019-01-14T04:59:44.736Z,79.69
2019-01-14T05:00:15.964Z,79.65
2019-01-14T05:00:47.230Z,79.66
2019-01-14T05:01:18.454Z,79.97
2019-01-14T05:01:49.673Z,80.04
2019-01-14T05:02:20.936Z,80.04
2019-01-14T05:02:52.187Z,80.13
2019-01-14T05:03:23.471Z,80.22
2019-01-14T05:03:54.704Z,80.51
2019-01-14T05:04:25.916Z,79.99
2019-01-14T05:04:57.120Z,79.63
2019-01-14T05:05:28.329Z,79.56
2019-01-14T05:05:59.631Z,79.71
2019-01-14T05:06:30.879Z,79.61
2019-01-14T05:07:02.138Z,79.66
2019-01-14T05:07:33.387Z,79.75
2019-01-14T05:08:07.029Z,79.85
2019-01-14T05:08:38.324Z,79.86
2019-01-14T05:09:10.096Z,79.84
2019-01-14T05:09:41.349Z,79.95
2019-01-14T05:10:13.195Z,79.92
2019-01-14T05:10:44.497Z,80.01
2019-01-14T05:11:15.806Z,80.13
2019-01-14T05:11:47.538Z,80.24
2019-01-14T05:12:19.965Z,80.37
2019-01-14T05:12:51.348Z,80.77
2019-01-14T05:13:22.705Z,80.27
2019-01-14T05:13:53.957Z,79.97
2019-01-14T05:14:25.271Z,79.87
2019-01-14T05:14:56.574Z,79.79
2019-01-14T05:15:27.917Z,79.89
2019-01-14T05:16:02.397Z,79.98
2019-01-14T05:16:34.897Z,80.22
2019-01-14T05:17:06.226Z,80.35
2019-01-14T05:17:37.594Z,80.49
2019-01-14T05:18:08.959Z,80.68
2019-01-14T05:18:40.272Z,80.75
2019-01-14T05:19:11.584Z,80.74
2019-01-14T05:19:42.843Z,80.71
2019-01-14T05:20:14.102Z,80.66
2019-01-14T05:20:45.370Z,80.48
2019-01-14T05:21:16.585Z,80.34
2019-01-14T05:21:47.823Z,80.15
2019-01-14T05:22:19.054Z,79.98
2019-01-14T05:22:50.292Z,79.75
2019-01-14T05:23:21.618Z,79.54
2019-01-14T05:23:52.824Z,79.41
2019-01-14T05:24:24.021Z,79.30
2019-01-14T05:24:55.241Z,79.21
2019-01-14T05:25:26.474Z,79.17
2019-01-14T05:25:57.726Z,79.24
2019-01-14T05:26:28.999Z,79.31
2019-01-14T05:27:00.214Z,79.40
2019-01-14T05:27:31.474Z,79.43
2019-01-14T05:28:02.725Z,79.50
2019-01-14T05:28:33.940Z,79.73
2019-01-14T05:29:05.122Z,79.92
2019-01-14T05:29:36.368Z,79.87
2019-01-14T05:30:07.697Z,79.63
2019-01-14T05:30:38.952Z,79.42
2019-01-14T05:31:10.224Z,79.19
2019-01-14T05:31:41.992Z,78.67
2019-01-14T05:32:13.498Z,78.38
2019-01-14T05:32:44.711Z,77.99
2019-01-14T05:33:15.911Z,77.76
2019-01-14T05:33:47.109Z,77.61
2019-01-14T05:34:18.333Z,77.33
2019-01-14T05:34:49.575Z,77.12
2019-01-14T05:35:20.820Z,77.18
2019-01-14T05:35:52.015Z,77.43
2019-01-14T05:36:23.294Z,77.39
2019-01-14T05:36:54.516Z,77.39
2019-01-14T05:37:25.737Z,77.49
2019-01-14T05:37:56.942Z,77.80
2019-01-14T05:38:28.172Z,77.89
2019-01-14T05:38:59.377Z,77.92
2019-01-14T05:39:30.580Z,77.76
2019-01-14T05:40:01.788Z,77.56
2019-01-14T05:40:32.988Z,77.36
2019-01-14T05:41:04.206Z,77.00
2019-01-14T05:41:37.232Z,76.73
2019-01-14T05:42:08.443Z,76.46
2019-01-14T05:42:39.627Z,76.23
2019-01-14T05:43:10.936Z,75.97
2019-01-14T05:43:42.215Z,75.97
2019-01-14T05:44:13.424Z,76.03
2019-01-14T05:44:44.661Z,76.03
2019-01-14T05:45:17.162Z,75.95
2019-01-14T05:45:48.407Z,75.75
2019-01-14T05:46:19.694Z,75.61
2019-01-14T05:46:50.991Z,75.54
2019-01-14T05:47:22.401Z,75.44
2019-01-14T05:47:53.737Z,75.37
2019-01-14T05:48:24.998Z,75.27
2019-01-14T05:48:56.918Z,75.19
2019-01-14T05:49:28.269Z,75.11
2019-01-14T05:49:59.515Z,75.16
2019-01-14T05:50:30.857Z,75.09
2019-01-14T05:51:05.529Z,75.15
2019-01-14T05:51:36.889Z,75.22
2019-01-14T05:52:08.211Z,75.10
2019-01-14T05:52:39.693Z,75.14
2019-01-14T05:53:11.544Z,75.14
2019-01-14T05:53:43.856Z,75.08
2019-01-14T05:54:17.230Z,75.26
2019-01-14T05:54:52.123Z,75.28
2019-01-14T05:55:37.917Z,75.36
2019-01-14T05:56:10.867Z,75.30
2019-01-14T05:56:42.718Z,74.91
2019-01-14T05:57:14.028Z,74.60
2019-01-14T05:57:45.312Z,74.61
2019-01-14T05:58:18.648Z,74.72
2019-01-14T05:58:49.960Z,74.76
2019-01-14T05:59:21.436Z,74.88
2019-01-14T05:59:52.784Z,74.99
2019-01-14T06:00:24.212Z,75.12
2019-01-14T06:00:55.541Z,75.19
2019-01-14T06:01:28.860Z,75.51
2019-01-14T06:02:06.626Z,75.49
2019-01-14T06:02:38.735Z,75.58
2019-01-14T06:03:12.590Z,75.60
2019-01-14T06:03:45.268Z,75.58
2019-01-14T06:04:16.557Z,75.04
2019-01-14T06:04:47.896Z,74.57
2019-01-14T06:05:19.206Z,74.22
2019-01-14T06:05:50.467Z,73.90
2019-01-14T06:06:21.735Z,73.72
2019-01-14T06:06:52.956Z,73.84
2019-01-14T06:07:24.244Z,73.81
2019-01-14T06:07:55.487Z,73.78
2019-01-14T06:08:26.721Z,73.82
2019-01-14T06:08:58.079Z,73.83
2019-01-14T06:09:29.363Z,73.81
2019-01-14T06:10:00.691Z,73.77
2019-01-14T06:10:31.981Z,73.97
2019-01-14T06:11:03.172Z,74.24
2019-01-14T06:11:34.478Z,74.55
2019-01-14T06:12:06.736Z,74.84
2019-01-14T06:12:37.959Z,75.10
2019-01-14T06:13:09.222Z,75.59
2019-01-14T06:13:40.439Z,75.81
2019-01-14T06:14:11.767Z,75.90
2019-01-14T06:14:42.989Z,75.90
2019-01-14T06:15:14.261Z,75.85
2019-01-14T06:15:45.468Z,75.76
2019-01-14T06:16:18.368Z,75.77
2019-01-14T06:16:49.778Z,75.84
2019-01-14T06:17:21.009Z,75.87
2019-01-14T06:17:52.223Z,75.85
2019-01-14T06:18:23.445Z,75.71
2019-01-14T06:18:54.654Z,75.53
2019-01-14T06:19:25.864Z,75.84
2019-01-14T06:19:57.078Z,76.02
2019-01-14T06:20:28.302Z,76.08
2019-01-14T06:20:59.533Z,76.11
2019-01-14T06:21:30.766Z,76.16
2019-01-14T06:22:02.090Z,76.22
2019-01-14T06:22:33.376Z,76.26
2019-01-14T06:23:04.710Z,76.41
2019-01-14T06:23:44.544Z,76.46
2019-01-14T06:24:15.803Z,76.36
2019-01-14T06:24:47.031Z,76.25
2019-01-14T06:25:18.239Z,76.25
2019-01-14T06:25:49.563Z,76.26
2019-01-14T06:26:20.860Z,76.36
2019-01-14T06:26:52.090Z,76.41
2019-01-14T06:27:23.321Z,76.41
2019-01-14T06:27:54.597Z,76.40
2019-01-14T06:28:25.805Z,76.41
2019-01-14T06:28:57.013Z,76.37
2019-01-14T06:29:28.278Z,76.26
2019-01-14T06:29:59.519Z,76.07
2019-01-14T06:30:31.660Z,75.85
2019-01-14T06:31:02.942Z,75.76
2019-01-14T06:31:34.221Z,75.86
2019-01-14T06:32:05.446Z,75.93
2019-01-14T06:32:39.895Z,75.95
2019-01-14T06:36:05.659Z,75.37
2019-01-14T06:44:19.012Z,78.05
2019-01-14T06:55:36.230Z,77.09
2019-01-14T06:56:07.437Z,76.71
2019-01-14T06:56:38.660Z,76.49
2019-01-14T06:57:09.878Z,76.33
2019-01-14T06:57:41.099Z,76.08
2019-01-14T06:58:12.361Z,76.01
2019-01-14T06:58:43.560Z,75.79
2019-01-14T06:59:14.833Z,75.52
2019-01-14T06:59:46.080Z,75.23
2019-01-14T07:00:17.284Z,75.03
2019-01-14T07:00:48.527Z,74.83
2019-01-14T07:01:19.808Z,74.29
2019-01-14T07:05:16.693Z,72.23
2019-01-14T07:06:43.090Z,71.57
2019-01-14T07:07:14.547Z,70.79
2019-01-14T07:07:45.779Z,70.47
2019-01-14T07:08:17.020Z,70.19
2019-01-14T07:08:48.277Z,69.82
2019-01-14T07:09:19.568Z,69.98
2019-01-14T07:09:50.809Z,69.86
2019-01-14T07:10:22.024Z,69.65
2019-01-14T07:10:53.234Z,69.41
2019-01-14T07:11:24.426Z,69.16
2019-01-14T07:11:55.627Z,68.54
2019-01-14T07:12:26.873Z,68.04
2019-01-14T07:12:58.114Z,67.60
2019-01-14T07:13:29.288Z,67.40
2019-01-14T07:14:00.588Z,66.96
2019-01-14T07:14:31.789Z,66.25